sensor_id;sensor_type;location;lat;lon;timestamp;P1;durP1;ratioP1;P2;durP2;ratioP2
37753;SDS011;23596;52.520;13.464;2023-02-11T00:00:09;119.60;;;40.33;;
37753;SDS011;23596;52.520;13.464;2023-02-11T00:02:36;126.97;;;40.40;;
37753;SDS011;23596;52.520;13.464;2023-02-11T00:05:02;109.93;;;39.57;;
37753;SDS011;23596;52.520;13.464;2023-02-11T00:07:28;114.97;;;41.03;;
37753;SDS011;23596;52.520;13.464;2023-02-11T00:09:54;110.15;;;41.50;;
37753;SDS011;23596;52.520;13.464;2023-02-11T00:12:20;119.87;;;39.43;;
37753;SDS011;23596;52.520;13.464;2023-02-11T00:14:46;110.85;;;39.22;;
37753;SDS011;23596;52.520;13.464;2023-02-11T00:17:12;111.68;;;38.45;;
37753;SDS011;23596;52.520;13.464;2023-02-11T00:19:38;115.70;;;41.47;;
37753;SDS011;23596;52.520;13.464;2023-02-11T00:22:04;120.20;;;38.77;;
37753;SDS011;23596;52.520;13.464;2023-02-11T00:24:29;110.13;;;38.60;;
37753;SDS011;23596;52.520;13.464;2023-02-11T00:26:55;130.60;;;40.07;;
37753;SDS011;23596;52.520;13.464;2023-02-11T00:29:21;110.40;;;38.83;;
37753;SDS011;23596;52.520;13.464;2023-02-11T00:31:46;114.57;;;39.27;;
37753;SDS011;23596;52.520;13.464;2023-02-11T00:34:12;104.80;;;37.60;;
37753;SDS011;23596;52.520;13.464;2023-02-11T00:36:38;113.80;;;39.27;;
37753;SDS011;23596;52.520;13.464;2023-02-11T00:39:03;110.45;;;40.15;;
37753;SDS011;23596;52.520;13.464;2023-02-11T00:41:29;122.60;;;41.50;;
37753;SDS011;23596;52.520;13.464;2023-02-11T00:43:55;106.13;;;38.95;;
37753;SDS011;23596;52.520;13.464;2023-02-11T00:46:21;112.30;;;38.70;;
37753;SDS011;23596;52.520;13.464;2023-02-11T00:48:47;102.70;;;38.88;;
37753;SDS011;23596;52.520;13.464;2023-02-11T00:51:13;106.47;;;39.33;;
37753;SDS011;23596;52.520;13.464;2023-02-11T00:53:39;103.65;;;37.42;;
37753;SDS011;23596;52.520;13.464;2023-02-11T00:56:05;108.20;;;39.67;;
37753;SDS011;23596;52.520;13.464;2023-02-11T00:58:31;101.25;;;38.55;;
37753;SDS011;23596;52.520;13.464;2023-02-11T01:00:57;101.87;;;37.27;;
37753;SDS011;23596;52.520;13.464;2023-02-11T01:03:22;103.00;;;36.87;;
37753;SDS011;23596;52.520;13.464;2023-02-11T01:05:48;100.30;;;38.40;;
37753;SDS011;23596;52.520;13.464;2023-02-11T01:08:14;111.77;;;40.60;;
37753;SDS011;23596;52.520;13.464;2023-02-11T01:10:40;99.53;;;37.33;;
37753;SDS011;23596;52.520;13.464;2023-02-11T01:13:05;106.43;;;37.03;;
37753;SDS011;23596;52.520;13.464;2023-02-11T01:15:31;97.17;;;37.67;;
37753;SDS011;23596;52.520;13.464;2023-02-11T01:17:57;107.97;;;36.80;;
37753;SDS011;23596;52.520;13.464;2023-02-11T01:20:24;100.93;;;37.63;;
37753;SDS011;23596;52.520;13.464;2023-02-11T01:22:51;112.70;;;38.15;;
37753;SDS011;23596;52.520;13.464;2023-02-11T01:25:17;105.20;;;36.40;;
37753;SDS011;23596;52.520;13.464;2023-02-11T01:27:42;115.50;;;39.93;;
37753;SDS011;23596;52.520;13.464;2023-02-11T01:30:09;105.63;;;37.27;;
37753;SDS011;23596;52.520;13.464;2023-02-11T01:32:36;105.13;;;39.42;;
37753;SDS011;23596;52.520;13.464;2023-02-11T01:35:02;105.53;;;38.83;;
37753;SDS011;23596;52.520;13.464;2023-02-11T01:37:27;109.10;;;37.93;;
37753;SDS011;23596;52.520;13.464;2023-02-11T01:39:53;102.07;;;36.67;;
37753;SDS011;23596;52.520;13.464;2023-02-11T01:42:19;99.80;;;38.03;;
37753;SDS011;23596;52.520;13.464;2023-02-11T01:44:50;94.15;;;37.17;;
37753;SDS011;23596;52.520;13.464;2023-02-11T01:47:18;118.65;;;39.20;;
37753;SDS011;23596;52.520;13.464;2023-02-11T01:54:50;98.38;;;36.90;;
37753;SDS011;23596;52.520;13.464;2023-02-11T01:57:37;106.20;;;37.97;;
37753;SDS011;23596;52.520;13.464;2023-02-11T02:00:13;110.78;;;37.05;;
37753;SDS011;23596;52.520;13.464;2023-02-11T02:05:26;111.57;;;38.25;;
37753;SDS011;23596;52.520;13.464;2023-02-11T02:10:36;106.95;;;36.10;;
37753;SDS011;23596;52.520;13.464;2023-02-11T02:13:08;97.22;;;37.83;;
37753;SDS011;23596;52.520;13.464;2023-02-11T02:15:39;108.72;;;37.95;;
37753;SDS011;23596;52.520;13.464;2023-02-11T02:21:07;105.47;;;37.50;;
37753;SDS011;23596;52.520;13.464;2023-02-11T02:41:18;104.68;;;37.88;;
37753;SDS011;23596;52.520;13.464;2023-02-11T02:43:44;103.32;;;38.05;;
37753;SDS011;23596;52.520;13.464;2023-02-11T02:48:38;102.47;;;38.27;;
37753;SDS011;23596;52.520;13.464;2023-02-11T02:51:20;103.00;;;40.73;;
37753;SDS011;23596;52.520;13.464;2023-02-11T03:08:06;118.72;;;41.05;;
37753;SDS011;23596;52.520;13.464;2023-02-11T03:10:37;110.57;;;41.95;;
37753;SDS011;23596;52.520;13.464;2023-02-11T03:13:07;108.03;;;39.97;;
37753;SDS011;23596;52.520;13.464;2023-02-11T03:15:38;108.13;;;41.03;;
37753;SDS011;23596;52.520;13.464;2023-02-11T03:18:08;113.75;;;40.95;;
37753;SDS011;23596;52.520;13.464;2023-02-11T03:20:37;105.95;;;41.38;;
37753;SDS011;23596;52.520;13.464;2023-02-11T03:23:20;110.20;;;40.55;;
37753;SDS011;23596;52.520;13.464;2023-02-11T03:26:02;112.25;;;42.38;;
37753;SDS011;23596;52.520;13.464;2023-02-11T03:28:41;115.28;;;43.42;;
37753;SDS011;23596;52.520;13.464;2023-02-11T03:31:16;109.45;;;41.72;;
37753;SDS011;23596;52.520;13.464;2023-02-11T03:36:50;116.50;;;41.75;;
37753;SDS011;23596;52.520;13.464;2023-02-11T03:39:39;119.60;;;43.92;;
37753;SDS011;23596;52.520;13.464;2023-02-11T03:42:11;107.50;;;42.80;;
37753;SDS011;23596;52.520;13.464;2023-02-11T03:44:40;111.90;;;42.78;;
37753;SDS011;23596;52.520;13.464;2023-02-11T03:47:20;120.20;;;45.53;;
37753;SDS011;23596;52.520;13.464;2023-02-11T03:49:49;119.35;;;44.08;;
37753;SDS011;23596;52.520;13.464;2023-02-11T03:52:17;113.05;;;43.35;;
37753;SDS011;23596;52.520;13.464;2023-02-11T03:57:11;118.57;;;43.78;;
37753;SDS011;23596;52.520;13.464;2023-02-11T03:59:56;118.27;;;44.53;;
37753;SDS011;23596;52.520;13.464;2023-02-11T04:02:24;111.80;;;42.72;;
37753;SDS011;23596;52.520;13.464;2023-02-11T04:04:53;111.90;;;42.67;;
37753;SDS011;23596;52.520;13.464;2023-02-11T04:07:18;116.60;;;44.20;;
37753;SDS011;23596;52.520;13.464;2023-02-11T04:09:44;124.27;;;44.93;;
37753;SDS011;23596;52.520;13.464;2023-02-11T04:12:10;113.17;;;44.77;;
37753;SDS011;23596;52.520;13.464;2023-02-11T04:14:35;114.47;;;45.47;;
37753;SDS011;23596;52.520;13.464;2023-02-11T04:17:01;116.13;;;46.53;;
37753;SDS011;23596;52.520;13.464;2023-02-11T04:19:27;115.65;;;41.97;;
37753;SDS011;23596;52.520;13.464;2023-02-11T04:21:53;109.33;;;43.27;;
37753;SDS011;23596;52.520;13.464;2023-02-11T04:24:18;114.40;;;44.77;;
37753;SDS011;23596;52.520;13.464;2023-02-11T04:26:44;119.33;;;42.13;;
37753;SDS011;23596;52.520;13.464;2023-02-11T04:29:10;135.50;;;46.47;;
37753;SDS011;23596;52.520;13.464;2023-02-11T04:31:35;116.37;;;43.67;;
37753;SDS011;23596;52.520;13.464;2023-02-11T04:34:01;118.27;;;44.80;;
37753;SDS011;23596;52.520;13.464;2023-02-11T04:36:26;118.70;;;46.13;;
37753;SDS011;23596;52.520;13.464;2023-02-11T04:38:52;127.20;;;45.30;;
37753;SDS011;23596;52.520;13.464;2023-02-11T04:41:18;117.90;;;45.00;;
37753;SDS011;23596;52.520;13.464;2023-02-11T04:43:43;127.90;;;48.80;;
37753;SDS011;23596;52.520;13.464;2023-02-11T04:46:09;119.60;;;46.10;;
37753;SDS011;23596;52.520;13.464;2023-02-11T04:48:34;127.23;;;47.20;;
37753;SDS011;23596;52.520;13.464;2023-02-11T04:51:00;131.40;;;48.57;;
37753;SDS011;23596;52.520;13.464;2023-02-11T04:53:26;125.50;;;48.78;;
37753;SDS011;23596;52.520;13.464;2023-02-11T04:55:52;136.87;;;47.50;;
37753;SDS011;23596;52.520;13.464;2023-02-11T04:58:18;125.33;;;51.13;;
37753;SDS011;23596;52.520;13.464;2023-02-11T05:00:44;122.90;;;49.17;;
37753;SDS011;23596;52.520;13.464;2023-02-11T05:03:10;128.43;;;49.67;;
37753;SDS011;23596;52.520;13.464;2023-02-11T05:05:37;123.70;;;48.83;;
37753;SDS011;23596;52.520;13.464;2023-02-11T05:08:04;133.77;;;49.80;;
37753;SDS011;23596;52.520;13.464;2023-02-11T05:10:31;128.93;;;50.35;;
37753;SDS011;23596;52.520;13.464;2023-02-11T05:12:57;128.20;;;50.53;;
37753;SDS011;23596;52.520;13.464;2023-02-11T05:15:23;126.47;;;48.33;;
37753;SDS011;23596;52.520;13.464;2023-02-11T05:17:48;131.63;;;50.53;;
37753;SDS011;23596;52.520;13.464;2023-02-11T05:20:14;139.93;;;51.37;;
37753;SDS011;23596;52.520;13.464;2023-02-11T05:22:39;141.13;;;53.70;;
37753;SDS011;23596;52.520;13.464;2023-02-11T05:25:05;139.97;;;52.40;;
37753;SDS011;23596;52.520;13.464;2023-02-11T05:27:31;138.27;;;52.17;;
37753;SDS011;23596;52.520;13.464;2023-02-11T05:29:56;138.27;;;51.13;;
37753;SDS011;23596;52.520;13.464;2023-02-11T05:32:22;139.90;;;51.23;;
37753;SDS011;23596;52.520;13.464;2023-02-11T05:34:48;131.03;;;51.73;;
37753;SDS011;23596;52.520;13.464;2023-02-11T05:37:13;143.80;;;54.03;;
37753;SDS011;23596;52.520;13.464;2023-02-11T05:39:39;145.20;;;51.10;;
37753;SDS011;23596;52.520;13.464;2023-02-11T05:42:04;137.10;;;53.47;;
37753;SDS011;23596;52.520;13.464;2023-02-11T05:44:30;136.27;;;50.97;;
37753;SDS011;23596;52.520;13.464;2023-02-11T05:46:56;140.20;;;54.20;;
37753;SDS011;23596;52.520;13.464;2023-02-11T05:49:21;136.23;;;52.07;;
37753;SDS011;23596;52.520;13.464;2023-02-11T05:51:47;139.07;;;53.40;;
37753;SDS011;23596;52.520;13.464;2023-02-11T05:54:13;143.17;;;55.30;;
37753;SDS011;23596;52.520;13.464;2023-02-11T05:56:39;148.18;;;54.50;;
37753;SDS011;23596;52.520;13.464;2023-02-11T05:59:04;142.50;;;53.07;;
37753;SDS011;23596;52.520;13.464;2023-02-11T06:01:30;149.00;;;56.50;;
37753;SDS011;23596;52.520;13.464;2023-02-11T06:03:56;146.10;;;55.57;;
37753;SDS011;23596;52.520;13.464;2023-02-11T06:06:21;141.43;;;54.47;;
37753;SDS011;23596;52.520;13.464;2023-02-11T06:08:47;145.80;;;56.43;;
37753;SDS011;23596;52.520;13.464;2023-02-11T06:11:13;139.00;;;55.07;;
37753;SDS011;23596;52.520;13.464;2023-02-11T06:16:05;150.20;;;53.67;;
37753;SDS011;23596;52.520;13.464;2023-02-11T06:18:31;160.10;;;56.10;;
37753;SDS011;23596;52.520;13.464;2023-02-11T06:20:57;158.48;;;57.30;;
37753;SDS011;23596;52.520;13.464;2023-02-11T06:23:23;146.93;;;56.53;;
37753;SDS011;23596;52.520;13.464;2023-02-11T06:25:49;142.63;;;57.23;;
37753;SDS011;23596;52.520;13.464;2023-02-11T06:28:16;163.85;;;59.42;;
37753;SDS011;23596;52.520;13.464;2023-02-11T06:30:41;160.43;;;59.90;;
37753;SDS011;23596;52.520;13.464;2023-02-11T06:33:07;175.60;;;60.87;;
37753;SDS011;23596;52.520;13.464;2023-02-11T06:35:33;170.13;;;62.17;;
37753;SDS011;23596;52.520;13.464;2023-02-11T06:37:59;169.02;;;59.75;;
37753;SDS011;23596;52.520;13.464;2023-02-11T06:40:25;159.52;;;61.78;;
37753;SDS011;23596;52.520;13.464;2023-02-11T06:42:51;162.33;;;59.80;;
37753;SDS011;23596;52.520;13.464;2023-02-11T06:45:17;155.80;;;58.23;;
37753;SDS011;23596;52.520;13.464;2023-02-11T06:47:44;159.35;;;59.78;;
37753;SDS011;23596;52.520;13.464;2023-02-11T06:50:11;175.53;;;63.97;;
37753;SDS011;23596;52.520;13.464;2023-02-11T06:52:38;167.40;;;61.85;;
37753;SDS011;23596;52.520;13.464;2023-02-11T06:55:04;167.70;;;62.87;;
37753;SDS011;23596;52.520;13.464;2023-02-11T06:57:30;160.98;;;59.28;;
37753;SDS011;23596;52.520;13.464;2023-02-11T06:59:55;169.20;;;63.97;;
37753;SDS011;23596;52.520;13.464;2023-02-11T07:02:21;174.83;;;60.73;;
37753;SDS011;23596;52.520;13.464;2023-02-11T07:04:46;164.90;;;62.30;;
37753;SDS011;23596;52.520;13.464;2023-02-11T07:07:12;171.47;;;63.17;;
37753;SDS011;23596;52.520;13.464;2023-02-11T07:09:38;172.67;;;62.03;;
37753;SDS011;23596;52.520;13.464;2023-02-11T07:12:03;177.37;;;61.90;;
37753;SDS011;23596;52.520;13.464;2023-02-11T07:14:29;163.93;;;62.17;;
37753;SDS011;23596;52.520;13.464;2023-02-11T07:16:55;160.57;;;60.90;;
37753;SDS011;23596;52.520;13.464;2023-02-11T07:19:20;173.30;;;61.63;;
37753;SDS011;23596;52.520;13.464;2023-02-11T07:21:46;166.07;;;60.07;;
37753;SDS011;23596;52.520;13.464;2023-02-11T07:24:12;166.18;;;61.65;;
37753;SDS011;23596;52.520;13.464;2023-02-11T07:26:39;165.18;;;58.95;;
37753;SDS011;23596;52.520;13.464;2023-02-11T07:29:04;180.20;;;61.80;;
37753;SDS011;23596;52.520;13.464;2023-02-11T07:31:30;163.70;;;61.03;;
37753;SDS011;23596;52.520;13.464;2023-02-11T07:33:57;164.30;;;61.05;;
37753;SDS011;23596;52.520;13.464;2023-02-11T07:36:25;162.43;;;61.33;;
37753;SDS011;23596;52.520;13.464;2023-02-11T07:38:52;167.43;;;61.13;;
37753;SDS011;23596;52.520;13.464;2023-02-11T07:41:18;174.77;;;60.07;;
37753;SDS011;23596;52.520;13.464;2023-02-11T07:43:46;184.93;;;62.80;;
37753;SDS011;23596;52.520;13.464;2023-02-11T07:46:13;164.52;;;62.15;;
37753;SDS011;23596;52.520;13.464;2023-02-11T07:48:44;177.00;;;60.80;;
37753;SDS011;23596;52.520;13.464;2023-02-11T07:51:12;166.30;;;62.03;;
37753;SDS011;23596;52.520;13.464;2023-02-11T07:53:39;182.00;;;59.53;;
37753;SDS011;23596;52.520;13.464;2023-02-11T07:56:06;161.27;;;58.03;;
37753;SDS011;23596;52.520;13.464;2023-02-11T07:58:33;166.77;;;62.00;;
37753;SDS011;23596;52.520;13.464;2023-02-11T08:01:02;161.93;;;58.55;;
37753;SDS011;23596;52.520;13.464;2023-02-11T08:03:30;158.73;;;57.85;;
37753;SDS011;23596;52.520;13.464;2023-02-11T08:05:57;162.98;;;61.33;;
37753;SDS011;23596;52.520;13.464;2023-02-11T08:08:24;184.07;;;65.33;;
37753;SDS011;23596;52.520;13.464;2023-02-11T08:10:50;155.88;;;60.63;;
37753;SDS011;23596;52.520;13.464;2023-02-11T08:13:16;170.33;;;59.87;;
37753;SDS011;23596;52.520;13.464;2023-02-11T08:15:42;165.27;;;61.50;;
37753;SDS011;23596;52.520;13.464;2023-02-11T08:18:07;161.50;;;59.13;;
37753;SDS011;23596;52.520;13.464;2023-02-11T08:20:33;165.60;;;58.23;;
37753;SDS011;23596;52.520;13.464;2023-02-11T08:22:58;177.67;;;60.70;;
37753;SDS011;23596;52.520;13.464;2023-02-11T08:25:25;160.40;;;56.22;;
37753;SDS011;23596;52.520;13.464;2023-02-11T08:27:51;158.27;;;55.97;;
37753;SDS011;23596;52.520;13.464;2023-02-11T08:30:16;160.30;;;56.87;;
37753;SDS011;23596;52.520;13.464;2023-02-11T08:32:42;159.97;;;59.40;;
37753;SDS011;23596;52.520;13.464;2023-02-11T08:35:07;165.27;;;57.77;;
37753;SDS011;23596;52.520;13.464;2023-02-11T08:37:36;173.63;;;57.47;;
37753;SDS011;23596;52.520;13.464;2023-02-11T08:40:02;150.73;;;56.53;;
37753;SDS011;23596;52.520;13.464;2023-02-11T08:42:28;151.40;;;57.75;;
37753;SDS011;23596;52.520;13.464;2023-02-11T08:44:54;153.83;;;59.60;;
37753;SDS011;23596;52.520;13.464;2023-02-11T08:47:19;170.80;;;59.00;;
37753;SDS011;23596;52.520;13.464;2023-02-11T08:49:45;160.13;;;57.47;;
37753;SDS011;23596;52.520;13.464;2023-02-11T08:52:10;164.57;;;55.27;;
37753;SDS011;23596;52.520;13.464;2023-02-11T08:54:36;152.60;;;55.80;;
37753;SDS011;23596;52.520;13.464;2023-02-11T08:57:02;160.57;;;57.57;;
37753;SDS011;23596;52.520;13.464;2023-02-11T08:59:28;159.17;;;56.43;;
37753;SDS011;23596;52.520;13.464;2023-02-11T09:01:53;174.57;;;57.33;;
37753;SDS011;23596;52.520;13.464;2023-02-11T09:04:19;162.67;;;56.87;;
37753;SDS011;23596;52.520;13.464;2023-02-11T09:06:45;153.30;;;56.60;;
37753;SDS011;23596;52.520;13.464;2023-02-11T09:09:12;153.47;;;55.00;;
37753;SDS011;23596;52.520;13.464;2023-02-11T09:11:39;140.07;;;54.63;;
37753;SDS011;23596;52.520;13.464;2023-02-11T09:14:06;158.18;;;55.55;;
37753;SDS011;23596;52.520;13.464;2023-02-11T09:16:34;157.85;;;56.90;;
37753;SDS011;23596;52.520;13.464;2023-02-11T09:19:00;161.32;;;57.47;;
37753;SDS011;23596;52.520;13.464;2023-02-11T09:21:27;149.05;;;55.65;;
37753;SDS011;23596;52.520;13.464;2023-02-11T09:23:53;161.63;;;57.28;;
37753;SDS011;23596;52.520;13.464;2023-02-11T09:26:21;155.32;;;54.83;;
37753;SDS011;23596;52.520;13.464;2023-02-11T09:28:48;148.98;;;53.75;;
37753;SDS011;23596;52.520;13.464;2023-02-11T09:33:43;143.02;;;51.78;;
37753;SDS011;23596;52.520;13.464;2023-02-11T09:36:17;148.02;;;53.45;;
37753;SDS011;23596;52.520;13.464;2023-02-11T09:38:44;132.20;;;51.15;;
37753;SDS011;23596;52.520;13.464;2023-02-11T09:41:53;137.25;;;52.03;;
37753;SDS011;23596;52.520;13.464;2023-02-11T09:43:59;143.88;;;51.60;;
37753;SDS011;23596;52.520;13.464;2023-02-11T09:46:30;148.23;;;54.28;;
37753;SDS011;23596;52.520;13.464;2023-02-11T09:49:02;136.05;;;52.47;;
37753;SDS011;23596;52.520;13.464;2023-02-11T09:51:34;151.90;;;55.28;;
37753;SDS011;23596;52.520;13.464;2023-02-11T09:54:20;148.45;;;54.00;;
37753;SDS011;23596;52.520;13.464;2023-02-11T09:56:48;150.48;;;54.38;;
37753;SDS011;23596;52.520;13.464;2023-02-11T09:59:13;167.67;;;56.87;;
37753;SDS011;23596;52.520;13.464;2023-02-11T10:01:56;149.75;;;54.90;;
37753;SDS011;23596;52.520;13.464;2023-02-11T10:04:43;149.52;;;55.63;;
37753;SDS011;23596;52.520;13.464;2023-02-11T10:10:32;147.27;;;51.87;;
37753;SDS011;23596;52.520;13.464;2023-02-11T10:13:22;146.55;;;53.13;;
37753;SDS011;23596;52.520;13.464;2023-02-11T10:24:29;146.13;;;52.80;;
37753;SDS011;23596;52.520;13.464;2023-02-11T10:26:55;135.55;;;50.90;;
37753;SDS011;23596;52.520;13.464;2023-02-11T10:29:25;148.05;;;53.80;;
37753;SDS011;23596;52.520;13.464;2023-02-11T10:32:00;145.25;;;52.35;;
37753;SDS011;23596;52.520;13.464;2023-02-11T10:34:31;161.10;;;55.40;;
37753;SDS011;23596;52.520;13.464;2023-02-11T10:36:56;157.43;;;55.07;;
37753;SDS011;23596;52.520;13.464;2023-02-11T10:39:24;149.67;;;55.07;;
37753;SDS011;23596;52.520;13.464;2023-02-11T10:46:56;151.13;;;54.80;;
37753;SDS011;23596;52.520;13.464;2023-02-11T10:49:38;156.38;;;53.42;;
37753;SDS011;23596;52.520;13.464;2023-02-11T10:54:57;150.65;;;50.53;;
37753;SDS011;23596;52.520;13.464;2023-02-11T11:00:07;147.38;;;52.90;;
37753;SDS011;23596;52.520;13.464;2023-02-11T11:02:55;151.45;;;52.08;;
37753;SDS011;23596;52.520;13.464;2023-02-11T11:05:33;144.40;;;54.08;;
37753;SDS011;23596;52.520;13.464;2023-02-11T11:08:03;148.38;;;51.63;;
37753;SDS011;23596;52.520;13.464;2023-02-11T11:12:59;144.60;;;52.53;;
37753;SDS011;23596;52.520;13.464;2023-02-11T11:15:26;155.37;;;52.60;;
37753;SDS011;23596;52.520;13.464;2023-02-11T11:20:37;147.73;;;49.58;;
37753;SDS011;23596;52.520;13.464;2023-02-11T11:23:07;156.43;;;51.33;;
37753;SDS011;23596;52.520;13.464;2023-02-11T11:25:57;151.57;;;52.35;;
37753;SDS011;23596;52.520;13.464;2023-02-11T11:28:30;144.80;;;51.00;;
37753;SDS011;23596;52.520;13.464;2023-02-11T11:31:02;145.35;;;49.45;;
37753;SDS011;23596;52.520;13.464;2023-02-11T11:33:32;147.82;;;51.28;;
37753;SDS011;23596;52.520;13.464;2023-02-11T11:36:04;135.80;;;51.05;;
37753;SDS011;23596;52.520;13.464;2023-02-11T11:38:33;146.75;;;49.70;;
37753;SDS011;23596;52.520;13.464;2023-02-11T11:46:47;128.30;;;46.92;;
37753;SDS011;23596;52.520;13.464;2023-02-11T11:52:09;144.98;;;47.53;;
37753;SDS011;23596;52.520;13.464;2023-02-11T11:54:35;134.18;;;47.65;;
37753;SDS011;23596;52.520;13.464;2023-02-11T11:57:04;140.60;;;48.28;;
37753;SDS011;23596;52.520;13.464;2023-02-11T11:59:40;130.90;;;48.22;;
37753;SDS011;23596;52.520;13.464;2023-02-11T12:21:46;124.38;;;44.88;;
37753;SDS011;23596;52.520;13.464;2023-02-11T12:24:32;123.30;;;43.03;;
37753;SDS011;23596;52.520;13.464;2023-02-11T12:30:21;102.93;;;40.42;;
37753;SDS011;23596;52.520;13.464;2023-02-11T12:32:59;95.17;;;38.43;;
37753;SDS011;23596;52.520;13.464;2023-02-11T12:44:36;108.35;;;38.42;;
37753;SDS011;23596;52.520;13.464;2023-02-11T12:47:11;120.03;;;42.10;;
37753;SDS011;23596;52.520;13.464;2023-02-11T12:52:49;111.50;;;42.08;;
37753;SDS011;23596;52.520;13.464;2023-02-11T12:55:24;107.72;;;43.50;;
37753;SDS011;23596;52.520;13.464;2023-02-11T12:57:52;135.05;;;50.72;;
37753;SDS011;23596;52.520;13.464;2023-02-11T13:00:21;115.78;;;46.33;;
37753;SDS011;23596;52.520;13.464;2023-02-11T13:02:59;98.85;;;42.92;;
37753;SDS011;23596;52.520;13.464;2023-02-11T13:08:14;104.00;;;40.65;;
37753;SDS011;23596;52.520;13.464;2023-02-11T13:11:03;97.70;;;38.75;;
37753;SDS011;23596;52.520;13.464;2023-02-11T13:16:14;92.57;;;37.25;;
37753;SDS011;23596;52.520;13.464;2023-02-11T13:21:25;99.47;;;37.67;;
37753;SDS011;23596;52.520;13.464;2023-02-11T13:24:24;92.70;;;36.08;;
37753;SDS011;23596;52.520;13.464;2023-02-11T13:32:11;85.80;;;34.67;;
37753;SDS011;23596;52.520;13.464;2023-02-11T13:39:55;84.75;;;35.53;;
37753;SDS011;23596;52.520;13.464;2023-02-11T13:42:46;92.72;;;34.53;;
37753;SDS011;23596;52.520;13.464;2023-02-11T13:48:05;92.90;;;36.10;;
37753;SDS011;23596;52.520;13.464;2023-02-11T13:50:44;88.47;;;34.92;;
37753;SDS011;23596;52.520;13.464;2023-02-11T13:53:12;91.28;;;31.67;;
37753;SDS011;23596;52.520;13.464;2023-02-11T13:55:39;78.07;;;32.63;;
37753;SDS011;23596;52.520;13.464;2023-02-11T13:58:17;84.43;;;32.10;;
37753;SDS011;23596;52.520;13.464;2023-02-11T14:00:52;83.70;;;31.52;;
37753;SDS011;23596;52.520;13.464;2023-02-11T14:03:22;93.07;;;33.53;;
37753;SDS011;23596;52.520;13.464;2023-02-11T14:14:18;81.90;;;29.67;;
37753;SDS011;23596;52.520;13.464;2023-02-11T14:22:10;71.20;;;30.55;;
37753;SDS011;23596;52.520;13.464;2023-02-11T14:43:15;64.70;;;27.48;;
37753;SDS011;23596;52.520;13.464;2023-02-11T14:45:49;68.63;;;28.58;;
37753;SDS011;23596;52.520;13.464;2023-02-11T14:48:19;52.85;;;25.88;;
37753;SDS011;23596;52.520;13.464;2023-02-11T14:53:34;68.65;;;25.65;;
37753;SDS011;23596;52.520;13.464;2023-02-11T14:56:01;57.53;;;24.88;;
37753;SDS011;23596;52.520;13.464;2023-02-11T14:58:31;55.22;;;25.20;;
37753;SDS011;23596;52.520;13.464;2023-02-11T15:03:26;60.40;;;26.27;;
37753;SDS011;23596;52.520;13.464;2023-02-11T15:05:59;65.00;;;26.52;;
37753;SDS011;23596;52.520;13.464;2023-02-11T15:08:26;57.38;;;24.73;;
37753;SDS011;23596;52.520;13.464;2023-02-11T15:10:52;59.03;;;24.45;;
37753;SDS011;23596;52.520;13.464;2023-02-11T15:15:53;57.45;;;23.23;;
37753;SDS011;23596;52.520;13.464;2023-02-11T15:18:23;53.97;;;24.17;;
37753;SDS011;23596;52.520;13.464;2023-02-11T15:20:55;57.47;;;23.85;;
37753;SDS011;23596;52.520;13.464;2023-02-11T15:23:22;63.90;;;26.13;;
37753;SDS011;23596;52.520;13.464;2023-02-11T15:25:50;56.22;;;22.88;;
37753;SDS011;23596;52.520;13.464;2023-02-11T15:28:28;54.40;;;22.80;;
37753;SDS011;23596;52.520;13.464;2023-02-11T15:31:00;54.85;;;23.27;;
37753;SDS011;23596;52.520;13.464;2023-02-11T15:33:27;56.63;;;24.88;;
37753;SDS011;23596;52.520;13.464;2023-02-11T15:35:56;56.53;;;23.02;;
37753;SDS011;23596;52.520;13.464;2023-02-11T15:38:26;54.67;;;24.25;;
37753;SDS011;23596;52.520;13.464;2023-02-11T15:40:55;52.20;;;23.30;;
37753;SDS011;23596;52.520;13.464;2023-02-11T15:43:41;55.28;;;23.00;;
37753;SDS011;23596;52.520;13.464;2023-02-11T15:46:18;45.13;;;20.35;;
37753;SDS011;23596;52.520;13.464;2023-02-11T15:48:46;51.60;;;22.10;;
37753;SDS011;23596;52.520;13.464;2023-02-11T15:53:46;46.25;;;21.45;;
37753;SDS011;23596;52.520;13.464;2023-02-11T15:59:07;54.72;;;21.48;;
37753;SDS011;23596;52.520;13.464;2023-02-11T16:01:40;50.42;;;19.67;;
37753;SDS011;23596;52.520;13.464;2023-02-11T16:04:12;58.40;;;21.53;;
37753;SDS011;23596;52.520;13.464;2023-02-11T16:06:43;46.67;;;19.45;;
37753;SDS011;23596;52.520;13.464;2023-02-11T16:19:34;45.47;;;19.65;;
37753;SDS011;23596;52.520;13.464;2023-02-11T16:22:07;44.30;;;19.33;;
37753;SDS011;23596;52.520;13.464;2023-02-11T16:24:35;47.35;;;20.08;;
37753;SDS011;23596;52.520;13.464;2023-02-11T16:27:22;41.95;;;18.83;;
37753;SDS011;23596;52.520;13.464;2023-02-11T16:30:05;40.95;;;18.80;;
37753;SDS011;23596;52.520;13.464;2023-02-11T16:32:46;49.47;;;21.25;;
37753;SDS011;23596;52.520;13.464;2023-02-11T16:35:11;54.03;;;20.67;;
37753;SDS011;23596;52.520;13.464;2023-02-11T16:37:38;42.10;;;18.80;;
37753;SDS011;23596;52.520;13.464;2023-02-11T16:40:03;41.57;;;19.63;;
37753;SDS011;23596;52.520;13.464;2023-02-11T16:42:30;43.65;;;19.20;;
37753;SDS011;23596;52.520;13.464;2023-02-11T16:44:55;40.50;;;18.80;;
37753;SDS011;23596;52.520;13.464;2023-02-11T16:47:25;38.33;;;18.37;;
37753;SDS011;23596;52.520;13.464;2023-02-11T16:49:52;40.72;;;18.90;;
37753;SDS011;23596;52.520;13.464;2023-02-11T16:52:19;46.20;;;17.75;;
37753;SDS011;23596;52.520;13.464;2023-02-11T16:54:46;38.17;;;16.33;;
37753;SDS011;23596;52.520;13.464;2023-02-11T16:57:16;43.20;;;18.33;;
37753;SDS011;23596;52.520;13.464;2023-02-11T16:59:43;38.08;;;17.02;;
37753;SDS011;23596;52.520;13.464;2023-02-11T17:02:11;42.97;;;17.80;;
37753;SDS011;23596;52.520;13.464;2023-02-11T17:04:53;35.92;;;15.35;;
37753;SDS011;23596;52.520;13.464;2023-02-11T17:07:20;35.88;;;15.35;;
37753;SDS011;23596;52.520;13.464;2023-02-11T17:09:46;32.50;;;15.83;;
37753;SDS011;23596;52.520;13.464;2023-02-11T17:12:11;33.67;;;16.00;;
37753;SDS011;23596;52.520;13.464;2023-02-11T17:14:37;40.67;;;18.10;;
37753;SDS011;23596;52.520;13.464;2023-02-11T17:17:03;38.77;;;17.60;;
37753;SDS011;23596;52.520;13.464;2023-02-11T17:19:28;43.17;;;16.10;;
37753;SDS011;23596;52.520;13.464;2023-02-11T17:21:54;39.63;;;17.40;;
37753;SDS011;23596;52.520;13.464;2023-02-11T17:24:20;34.20;;;16.57;;
37753;SDS011;23596;52.520;13.464;2023-02-11T17:26:46;38.50;;;16.98;;
37753;SDS011;23596;52.520;13.464;2023-02-11T17:29:14;39.17;;;17.02;;
37753;SDS011;23596;52.520;13.464;2023-02-11T17:31:41;38.72;;;17.88;;
37753;SDS011;23596;52.520;13.464;2023-02-11T17:34:07;39.70;;;17.03;;